Wetterdaten: Woche 21.11.11 - 27.11.11 (KW47)
Datum Zeit Temp. A. Feuchte A. Luftdruck Regen Wind Richtung Taupunkt Windchill Windben
21.11.2011 00:00 -0,3 C 86 % 1026,2 hPa 0,0 l/m 0,4 km/h N -2,3 C -0,3 C 4,8 km/h
21.11.2011 01:00 -0,7 C 86 % 1026,1 hPa 0,0 l/m 0,4 km/h N -2,8 C -0,7 C 4,8 km/h
21.11.2011 02:00 -1,0 C 85 % 1025,8 hPa 0,0 l/m 0,3 km/h N -3,2 C -1,0 C 4,0 km/h
21.11.2011 03:00 -1,1 C 85 % 1025,6 hPa 0,0 l/m 0,3 km/h N -3,3 C -1,1 C 4,4 km/h
21.11.2011 04:00 -1,3 C 84 % 1025,6 hPa 0,0 l/m 0,3 km/h N -3,6 C -1,3 C 3,6 km/h
21.11.2011 05:00 -1,4 C 84 % 1025,6 hPa 0,0 l/m 0,3 km/h N -3,7 C -1,4 C 4,4 km/h
21.11.2011 06:00 -1,6 C 84 % 1025,7 hPa 0,0 l/m 0,1 km/h N -4,0 C -1,6 C 3,2 km/h
21.11.2011 07:00 -1,8 C 84 % 1025,8 hPa 0,0 l/m 0,2 km/h N -4,1 C -1,8 C 3,6 km/h
21.11.2011 08:00 -1,8 C 84 % 1025,9 hPa 0,0 l/m 0,3 km/h N -4,1 C -1,8 C 3,6 km/h
21.11.2011 09:00 -1,7 C 83 % 1025,9 hPa 0,0 l/m 0,2 km/h N -4,2 C -1,7 C 3,6 km/h
21.11.2011 10:00 -1,4 C 83 % 1025,9 hPa 0,0 l/m 0,2 km/h N -3,9 C -1,4 C 2,8 km/h
21.11.2011 11:00 -1,4 C 83 % 1025,5 hPa 0,0 l/m 0,4 km/h N -3,9 C -1,4 C 4,8 km/h
21.11.2011 12:00 -1,3 C 83 % 1025,2 hPa 0,0 l/m 0,3 km/h N -3,8 C -1,3 C 3,6 km/h
21.11.2011 13:00 -1,2 C 83 % 1024,9 hPa 0,0 l/m 0,4 km/h N -3,7 C -1,2 C 4,4 km/h
21.11.2011 14:00 -1,2 C 83 % 1024,8 hPa 0,0 l/m 0,4 km/h N -3,7 C -1,2 C 4,8 km/h
21.11.2011 15:00 -1,3 C 83 % 1024,7 hPa 0,0 l/m 0,4 km/h N -3,8 C -1,3 C 4,8 km/h
21.11.2011 16:00 -1,5 C 83 % 1024,8 hPa 0,0 l/m 0,5 km/h N -4,0 C -1,5 C 4,4 km/h
21.11.2011 17:00 -1,8 C 83 % 1024,7 hPa 0,0 l/m 0,3 km/h N -4,2 C -1,8 C 3,6 km/h
21.11.2011 18:00 -2,0 C 83 % 1024,8 hPa 0,0 l/m 0,2 km/h N -4,4 C -2,0 C 3,2 km/h
21.11.2011 19:00 -2,1 C 83 % 1024,9 hPa 0,0 l/m 0,3 km/h N -4,6 C -2,1 C 4,0 km/h
21.11.2011 20:00 -2,1 C 83 % 1024,9 hPa 0,0 l/m 0,2 km/h N -4,6 C -2,1 C 4,0 km/h
21.11.2011 21:00 -2,1 C 83 % 1024,8 hPa 0,0 l/m 0,1 km/h N -4,6 C -2,1 C 2,4 km/h
21.11.2011 22:00 -2,3 C 83 % 1024,9 hPa 0,0 l/m 0,2 km/h N -4,8 C -2,3 C 3,6 km/h
21.11.2011 23:00 -2,4 C 83 % 1024,8 hPa 0,0 l/m 0,2 km/h N -4,9 C -2,4 C 3,6 km/h
22.11.2011 00:00 -2,3 C 83 % 1024,6 hPa 0,0 l/m 0,1 km/h N -4,8 C -2,3 C 2,0 km/h
22.11.2011 01:00 -2,3 C 83 % 1024,4 hPa 0,0 l/m 0,1 km/h N -4,8 C -2,3 C 2,0 km/h
22.11.2011 02:00 -2,4 C 83 % 1024,3 hPa 0,0 l/m 0,1 km/h N -4,9 C -2,4 C 1,6 km/h
22.11.2011 03:00 -2,4 C 83 % 1024,1 hPa 0,0 l/m 0,0 km/h N -4,9 C -2,4 C 2,0 km/h
22.11.2011 04:00 -2,4 C 83 % 1024,2 hPa 0,0 l/m 0,1 km/h N -4,9 C -2,4 C 2,0 km/h
22.11.2011 05:00 -2,4 C 83 % 1024,1 hPa 0,0 l/m 0,1 km/h N -4,9 C -2,4 C 2,0 km/h
22.11.2011 06:00 -2,5 C 83 % 1024,2 hPa 0,0 l/m 0,1 km/h N -5,0 C -2,5 C 2,4 km/h
22.11.2011 07:00 -2,5 C 83 % 1024,6 hPa 0,0 l/m 0,1 km/h N -5,0 C -2,5 C 2,0 km/h
22.11.2011 08:00 -2,6 C 86 % 1025,2 hPa 0,0 l/m 0,2 km/h N -4,6 C -2,6 C 2,8 km/h
22.11.2011 09:00 -2,5 C 83 % 1025,5 hPa 0,0 l/m 0,2 km/h N -5,1 C -2,5 C 3,6 km/h
22.11.2011 10:00 -2,6 C 85 % 1025,8 hPa 0,0 l/m 0,3 km/h N -4,8 C -2,6 C 3,2 km/h
22.11.2011 11:00 -2,4 C 83 % 1025,8 hPa 0,0 l/m 0,1 km/h N -4,9 C -2,4 C 3,2 km/h
22.11.2011 12:00 -2,2 C 83 % 1025,6 hPa 0,0 l/m 0,3 km/h N -4,7 C -2,2 C 4,8 km/h
22.11.2011 13:00 -2,2 C 83 % 1025,5 hPa 0,0 l/m 0,2 km/h N -4,7 C -2,2 C 3,6 km/h
22.11.2011 14:00 -2,1 C 83 % 1025,5 hPa 0,0 l/m 0,2 km/h N -4,6 C -2,1 C 3,6 km/h
22.11.2011 15:00 -2,3 C 83 % 1025,6 hPa 0,0 l/m 0,3 km/h N -4,8 C -2,3 C 3,6 km/h
22.11.2011 16:00 -2,6 C 83 % 1026,3 hPa 0,0 l/m 0,5 km/h N -5,1 C -2,6 C 4,8 km/h
22.11.2011 17:00 -2,7 C 83 % 1026,8 hPa 0,0 l/m 0,4 km/h N -5,2 C -2,7 C 3,6 km/h
22.11.2011 18:00 -2,8 C 83 % 1027,3 hPa 0,0 l/m 0,5 km/h N -5,2 C -2,8 C 4,0 km/h
22.11.2011 19:00 -2,8 C 83 % 1027,8 hPa 0,0 l/m 0,6 km/h O -5,3 C -2,8 C 4,4 km/h
22.11.2011 20:00 -2,8 C 83 % 1028,1 hPa 0,0 l/m 0,3 km/h N -5,3 C -2,8 C 3,6 km/h
22.11.2011 21:00 -2,8 C 83 % 1028,4 hPa 0,0 l/m 0,2 km/h N -5,3 C -2,8 C 3,2 km/h
22.11.2011 22:00 -2,8 C 84 % 1028,6 hPa 0,0 l/m 0,3 km/h N -5,2 C -2,8 C 4,0 km/h
22.11.2011 23:00 -2,9 C 84 % 1028,7 hPa 0,0 l/m 0,2 km/h N -5,2 C -2,9 C 4,0 km/h
23.11.2011 00:00 -3,0 C 84 % 1028,8 hPa 0,0 l/m 0,6 km/h SO -5,3 C -3,0 C 4,8 km/h
23.11.2011 01:00 -2,9 C 83 % 1029,0 hPa 0,0 l/m 0,4 km/h N -5,4 C -2,9 C 4,8 km/h
23.11.2011 02:00 -2,9 C 83 % 1029,1 hPa 0,0 l/m 0,1 km/h N -5,3 C -2,9 C 2,8 km/h
23.11.2011 03:00 -2,8 C 83 % 1029,3 hPa 0,0 l/m 0,4 km/h N -5,2 C -2,8 C 4,8 km/h
23.11.2011 04:00 -2,8 C 84 % 1029,6 hPa 0,0 l/m 0,1 km/h N -5,2 C -2,8 C 2,8 km/h
23.11.2011 05:00 -2,8 C 84 % 1029,8 hPa 0,0 l/m 0,2 km/h N -5,2 C -2,8 C 3,6 km/h
23.11.2011 06:00 -2,9 C 84 % 1029,9 hPa 0,0 l/m 0,1 km/h N -5,2 C -2,9 C 3,6 km/h
23.11.2011 07:00 -2,8 C 83 % 1030,2 hPa 0,0 l/m 0,1 km/h N -5,2 C -2,8 C 2,4 km/h
23.11.2011 08:00 -2,5 C 84 % 1030,9 hPa 0,0 l/m 0,1 km/h N -4,9 C -2,5 C 2,4 km/h
23.11.2011 09:00 -2,2 C 83 % 1031,1 hPa 0,0 l/m 0,0 km/h N -4,6 C -2,2 C 1,6 km/h
23.11.2011 10:00 -1,8 C 83 % 1031,4 hPa 0,0 l/m 0,0 km/h N -4,3 C -1,8 C 2,4 km/h
23.11.2011 11:00 -1,3 C 83 % 1031,3 hPa 0,0 l/m 0,1 km/h N -3,8 C -1,3 C 2,8 km/h
23.11.2011 12:00 -1,1 C 83 % 1031,2 hPa 0,0 l/m 0,1 km/h N -3,6 C -1,1 C 2,4 km/h
23.11.2011 13:00 -0,8 C 83 % 1031,1 hPa 0,0 l/m 0,0 km/h N -3,4 C -0,8 C 2,0 km/h
23.11.2011 14:00 -0,7 C 83 % 1031,0 hPa 0,0 l/m 0,1 km/h N -3,2 C -0,7 C 2,0 km/h
23.11.2011 15:00 -0,6 C 83 % 1031,3 hPa 0,0 l/m 0,0 km/h N -3,1 C -0,6 C 1,6 km/h
23.11.2011 16:00 -0,4 C 84 % 1031,5 hPa 0,0 l/m 0,0 km/h N -2,8 C -0,4 C 1,2 km/h
23.11.2011 17:00 -0,4 C 84 % 1031,9 hPa 0,0 l/m 0,0 km/h N -2,7 C -0,4 C 0,8 km/h
23.11.2011 18:00 -0,3 C 84 % 1032,2 hPa 0,0 l/m 0,1 km/h N -2,7 C -0,3 C 2,8 km/h
23.11.2011 19:00 -0,3 C 84 % 1032,8 hPa 0,0 l/m 0,1 km/h N -2,7 C -0,3 C 3,2 km/h
23.11.2011 20:00 -0,3 C 83 % 1033,5 hPa 0,0 l/m 0,0 km/h N -2,8 C -0,3 C 2,0 km/h
23.11.2011 21:00 -0,3 C 83 % 1034,0 hPa 0,0 l/m 0,0 km/h N -2,9 C -0,3 C 2,4 km/h
23.11.2011 22:00 -0,4 C 83 % 1034,4 hPa 0,0 l/m 0,0 km/h N -2,9 C -0,4 C 2,0 km/h
23.11.2011 23:00 -0,4 C 83 % 1034,6 hPa 0,0 l/m 0,0 km/h N -2,9 C -0,4 C 0,8 km/h
24.11.2011 00:00 -0,4 C 83 % 1034,6 hPa 0,0 l/m 0,0 km/h N -2,9 C -0,4 C 0,4 km/h
24.11.2011 01:00 -0,3 C 82 % 1034,6 hPa 0,0 l/m 0,0 km/h N -3,0 C -0,3 C 0,0 km/h
24.11.2011 02:00 -0,3 C 82 % 1034,7 hPa 0,0 l/m 0,0 km/h N -3,0 C -0,3 C 0,0 km/h
24.11.2011 03:00 -0,3 C 82 % 1034,6 hPa 0,0 l/m 0,0 km/h N -3,0 C -0,3 C 0,0 km/h
24.11.2011 04:00 -0,2 C 82 % 1034,7 hPa 0,0 l/m 0,0 km/h N -2,9 C -0,2 C 0,8 km/h
24.11.2011 05:00 -0,2 C 82 % 1035,3 hPa 0,0 l/m 0,1 km/h N -2,9 C -0,2 C 1,6 km/h
24.11.2011 06:00 -0,5 C 82 % 1035,7 hPa 0,0 l/m 0,2 km/h N -3,1 C -0,5 C 2,4 km/h
24.11.2011 07:00 -0,7 C 83 % 1036,4 hPa 0,0 l/m 0,6 km/h N -3,2 C -0,7 C 2,8 km/h
24.11.2011 08:00 -0,8 C 83 % 1036,8 hPa 0,0 l/m 0,2 km/h N -3,4 C -0,8 C 2,8 km/h
24.11.2011 09:00 -0,6 C 83 % 1036,9 hPa 0,0 l/m 0,1 km/h N -3,1 C -0,6 C 2,4 km/h
24.11.2011 10:00 -0,2 C 83 % 1037,0 hPa 0,3 l/m 0,2 km/h N -2,7 C -0,2 C 3,2 km/h
24.11.2011 11:00 -0,1 C 84 % 1036,8 hPa 0,0 l/m 0,5 km/h N -2,4 C -0,1 C 3,6 km/h
24.11.2011 12:00 0,3 C 84 % 1036,6 hPa 0,0 l/m 0,0 km/h N -2,0 C 0,3 C 1,6 km/h
24.11.2011 13:00 0,6 C 85 % 1036,3 hPa 0,0 l/m 0,0 km/h N -1,7 C 0,6 C 1,6 km/h
24.11.2011 14:00 0,6 C 85 % 1036,1 hPa 0,0 l/m 0,0 km/h N -1,6 C 0,6 C 1,6 km/h
24.11.2011 15:00 0,6 C 85 % 1036,1 hPa 0,0 l/m 0,0 km/h N -1,5 C 0,6 C 1,6 km/h
24.11.2011 16:00 0,6 C 86 % 1036,2 hPa 0,0 l/m 0,0 km/h N -1,5 C 0,6 C 0,8 km/h
24.11.2011 17:00 0,7 C 86 % 1036,3 hPa 0,0 l/m 0,1 km/h N -1,4 C 0,7 C 1,6 km/h
24.11.2011 18:00 0,6 C 86 % 1036,6 hPa 0,0 l/m 0,0 km/h N -1,5 C 0,6 C 2,0 km/h
24.11.2011 19:00 0,6 C 86 % 1036,7 hPa 0,0 l/m 0,1 km/h N -1,5 C 0,6 C 2,4 km/h
24.11.2011 20:00 0,6 C 86 % 1036,6 hPa 0,0 l/m 0,1 km/h N -1,5 C 0,6 C 2,0 km/h
24.11.2011 21:00 0,6 C 85 % 1036,6 hPa 0,0 l/m 0,2 km/h N -1,6 C 0,6 C 3,2 km/h
24.11.2011 22:00 0,6 C 85 % 1036,2 hPa 0,0 l/m 0,2 km/h N -1,6 C 0,6 C 4,0 km/h
24.11.2011 23:00 0,6 C 85 % 1036,0 hPa 0,0 l/m 0,3 km/h N -1,6 C 0,6 C 3,6 km/h
25.11.2011 00:00 0,4 C 85 % 1035,6 hPa 0,0 l/m 0,1 km/h N -1,8 C 0,4 C 2,4 km/h
25.11.2011 01:00 0,2 C 85 % 1035,3 hPa 0,0 l/m 0,2 km/h N -2,0 C 0,2 C 4,0 km/h
25.11.2011 02:00 0,0 C 85 % 1035,0 hPa 0,0 l/m 0,1 km/h N -2,3 C 0,0 C 3,2 km/h
25.11.2011 03:00 -0,1 C 84 % 1034,7 hPa 0,0 l/m 0,1 km/h N -2,5 C -0,1 C 4,0 km/h
25.11.2011 04:00 -0,1 C 84 % 1034,2 hPa 0,0 l/m 0,4 km/h N -2,5 C -0,1 C 4,4 km/h
25.11.2011 05:00 -0,1 C 84 % 1034,0 hPa 0,0 l/m 0,3 km/h N -2,5 C -0,1 C 4,4 km/h
25.11.2011 06:00 -0,1 C 84 % 1033,9 hPa 0,0 l/m 0,4 km/h N -2,5 C -0,1 C 5,2 km/h
25.11.2011 07:00 -0,1 C 84 % 1034,0 hPa 0,0 l/m 0,3 km/h N -2,6 C -0,1 C 4,8 km/h
25.11.2011 08:00 -0,2 C 83 % 1033,8 hPa 0,0 l/m 0,4 km/h N -2,7 C -0,2 C 4,8 km/h
25.11.2011 09:00 -0,3 C 83 % 1033,6 hPa 0,0 l/m 0,7 km/h N -2,8 C -0,3 C 6,4 km/h
25.11.2011 10:00 -0,3 C 83 % 1033,5 hPa 0,0 l/m 0,7 km/h O-SO -2,9 C -0,3 C 6,8 km/h
25.11.2011 11:00 -0,3 C 82 % 1032,8 hPa 0,0 l/m 0,7 km/h O-SO -2,9 C -0,3 C 6,8 km/h
25.11.2011 12:00 -0,1 C 82 % 1032,1 hPa 0,0 l/m 1,0 km/h O-NO -2,8 C -0,1 C 8,4 km/h
25.11.2011 13:00 0,1 C 82 % 1031,6 hPa 0,0 l/m 0,6 km/h N -2,6 C 0,1 C 5,2 km/h
25.11.2011 14:00 0,1 C 82 % 1031,5 hPa 0,0 l/m 0,4 km/h N -2,6 C 0,1 C 4,4 km/h
25.11.2011 15:00 0,1 C 82 % 1031,4 hPa 0,0 l/m 0,1 km/h N -2,6 C 0,1 C 2,8 km/h
25.11.2011 16:00 0,0 C 82 % 1030,9 hPa 0,0 l/m 0,1 km/h N -2,7 C 0,0 C 3,6 km/h
25.11.2011 17:00 -0,1 C 82 % 1030,6 hPa 0,0 l/m 0,1 km/h N -2,8 C -0,1 C 2,4 km/h
25.11.2011 18:00 0,1 C 81 % 1030,3 hPa 0,0 l/m 0,1 km/h N -2,7 C 0,1 C 2,0 km/h
25.11.2011 19:00 0,2 C 81 % 1030,2 hPa 0,0 l/m 0,1 km/h N -2,6 C 0,2 C 3,2 km/h
25.11.2011 20:00 0,3 C 81 % 1030,0 hPa 0,0 l/m 0,5 km/h W-SW -2,6 C 0,3 C 4,8 km/h
25.11.2011 21:00 0,3 C 81 % 1029,8 hPa 0,0 l/m 0,0 km/h N -2,5 C 0,3 C 1,6 km/h
25.11.2011 22:00 0,4 C 81 % 1029,9 hPa 0,0 l/m 0,0 km/h N -2,5 C 0,4 C 1,6 km/h
25.11.2011 23:00 0,2 C 82 % 1029,8 hPa 0,3 l/m 0,0 km/h N -2,5 C 0,2 C 1,2 km/h
26.11.2011 00:00 -0,8 C 82 % 1029,6 hPa 0,0 l/m 0,1 km/h N -3,4 C -0,8 C 1,2 km/h
26.11.2011 01:00 -1,6 C 83 % 1029,7 hPa 0,0 l/m 0,0 km/h N -4,1 C -1,6 C 0,4 km/h
26.11.2011 02:00 -2,4 C 83 % 1029,8 hPa 0,0 l/m 0,0 km/h N -4,9 C -2,4 C 0,8 km/h
26.11.2011 03:00 -3,0 C 83 % 1029,7 hPa 0,0 l/m 0,0 km/h N -5,5 C -3,0 C 0,0 km/h
26.11.2011 04:00 -3,0 C 83 % 1030,1 hPa 0,0 l/m 0,0 km/h N -5,6 C -3,0 C 1,2 km/h
26.11.2011 05:00 -2,2 C 82 % 1030,2 hPa 0,0 l/m 0,4 km/h NO -4,8 C -2,2 C 2,8 km/h
26.11.2011 06:00 -1,0 C 81 % 1030,5 hPa 0,0 l/m 0,2 km/h N -3,8 C -1,0 C 2,0 km/h
26.11.2011 07:00 1,7 C 79 % 1030,5 hPa 0,0 l/m 5,5 km/h W -1,5 C 0,5 C 17,7 km/h
26.11.2011 08:00 3,6 C 81 % 1031,5 hPa 0,3 l/m 9,3 km/h NW 0,7 C 1,2 C 24,5 km/h
26.11.2011 09:00 3,9 C 85 % 1031,7 hPa 0,3 l/m 7,7 km/h W-SW 1,5 C 2,8 C 23,7 km/h
26.11.2011 10:00 4,9 C 83 % 1031,7 hPa 0,0 l/m 8,5 km/h N 2,3 C 3,1 C 26,1 km/h
26.11.2011 11:00 5,9 C 78 % 1031,3 hPa 0,0 l/m 8,7 km/h N-NW 2,2 C 4,1 C 25,4 km/h
26.11.2011 12:00 7,0 C 72 % 1031,0 hPa 0,0 l/m 8,1 km/h W-NW 2,3 C 5,7 C 24,9 km/h
26.11.2011 13:00 7,6 C 69 % 1031,0 hPa 0,0 l/m 7,2 km/h W 2,3 C 6,5 C 23,7 km/h
26.11.2011 14:00 7,3 C 70 % 1031,1 hPa 0,0 l/m 3,7 km/h W-NW 2,1 C 7,3 C 14,9 km/h
26.11.2011 15:00 6,6 C 73 % 1031,6 hPa 0,0 l/m 3,1 km/h N-NO 2,1 C 6,6 C 12,1 km/h
26.11.2011 16:00 5,5 C 76 % 1031,4 hPa 0,0 l/m 0,4 km/h N 1,6 C 5,5 C 4,8 km/h
26.11.2011 17:00 5,2 C 81 % 1031,0 hPa 0,0 l/m 2,9 km/h N-NW 2,1 C 5,2 C 10,9 km/h
26.11.2011 18:00 5,4 C 81 % 1030,6 hPa 0,0 l/m 2,4 km/h W 2,4 C 5,4 C 11,7 km/h
26.11.2011 19:00 5,6 C 81 % 1030,4 hPa 0,0 l/m 0,8 km/h W-SW 2,6 C 5,6 C 8,0 km/h
26.11.2011 20:00 5,1 C 81 % 1030,8 hPa 0,0 l/m 0,0 km/h N 2,1 C 5,1 C 1,6 km/h
26.11.2011 21:00 4,3 C 82 % 1030,6 hPa 0,0 l/m 0,5 km/h S-SO 1,5 C 4,3 C 4,8 km/h
26.11.2011 22:00 4,1 C 82 % 1030,2 hPa 0,0 l/m 0,3 km/h N 1,4 C 4,1 C 2,0 km/h
26.11.2011 23:00 1,9 C 81 % 1029,7 hPa 0,0 l/m 0,0 km/h N -0,9 C 1,9 C 1,2 km/h
27.11.2011 00:00 0,3 C 83 % 1029,3 hPa 0,0 l/m 0,0 km/h N -2,3 C 0,3 C 0,8 km/h
27.11.2011 01:00 -0,9 C 84 % 1028,8 hPa 0,0 l/m 0,0 km/h N -3,2 C -0,9 C 0,4 km/h
27.11.2011 02:00 -1,4 C 85 % 1028,2 hPa 0,0 l/m 0,0 km/h N -3,6 C -1,4 C 1,2 km/h
27.11.2011 03:00 -2,0 C 85 % 1027,9 hPa 0,0 l/m 0,0 km/h N -4,2 C -2,0 C 0,0 km/h
27.11.2011 04:00 -2,6 C 86 % 1027,2 hPa 0,0 l/m 0,0 km/h N -4,6 C -2,6 C 0,4 km/h
27.11.2011 05:00 -2,8 C 86 % 1026,7 hPa 0,0 l/m 0,0 km/h N -4,9 C -2,8 C 0,4 km/h
27.11.2011 06:00 -3,1 C 86 % 1026,2 hPa 0,0 l/m 0,0 km/h N -5,2 C -3,1 C 0,4 km/h
27.11.2011 07:00 -3,1 C 87 % 1025,6 hPa 0,0 l/m 0,0 km/h N -5,0 C -3,1 C 0,4 km/h
27.11.2011 08:00 -2,6 C 85 % 1026,1 hPa 0,0 l/m 0,0 km/h N -4,8 C -2,6 C 1,2 km/h
27.11.2011 09:00 -1,9 C 84 % 1026,1 hPa 0,0 l/m 0,0 km/h N -4,2 C -1,9 C 1,2 km/h
27.11.2011 10:00 -0,9 C 84 % 1025,7 hPa 0,0 l/m 0,2 km/h N -3,3 C -0,9 C 3,2 km/h
27.11.2011 11:00 0,1 C 83 % 1024,9 hPa 0,0 l/m 0,8 km/h O -2,4 C 0,1 C 4,8 km/h
27.11.2011 12:00 0,9 C 83 % 1024,3 hPa 0,0 l/m 0,3 km/h N -1,6 C 0,9 C 3,2 km/h
27.11.2011 13:00 1,6 C 83 % 1023,3 hPa 0,0 l/m 0,7 km/h S-SO -1,0 C 1,6 C 7,3 km/h
27.11.2011 14:00 2,0 C 84 % 1022,6 hPa 0,0 l/m 2,4 km/h S-SO -0,4 C 2,0 C 11,3 km/h
27.11.2011 15:00 1,6 C 85 % 1022,4 hPa 0,0 l/m 0,8 km/h S -0,6 C 1,6 C 6,8 km/h
27.11.2011 16:00 0,9 C 85 % 1022,1 hPa 0,0 l/m 0,7 km/h S -1,3 C 0,9 C 6,0 km/h
27.11.2011 17:00 0,6 C 85 % 1022,0 hPa 0,0 l/m 2,6 km/h S-SO -1,7 C 0,6 C 11,3 km/h
27.11.2011 18:00 0,6 C 84 % 1021,7 hPa 0,0 l/m 1,0 km/h S-SO -1,8 C 0,6 C 7,6 km/h
27.11.2011 19:00 0,2 C 84 % 1022,1 hPa 0,0 l/m 0,2 km/h N -2,2 C 0,2 C 4,8 km/h
27.11.2011 20:00 -0,5 C 84 % 1022,8 hPa 0,0 l/m 0,2 km/h N-NO -2,9 C -0,5 C 3,6 km/h
27.11.2011 21:00 3,5 C 78 % 1022,7 hPa 0,0 l/m 6,3 km/h O -0,2 C 2,5 C 21,7 km/h
27.11.2011 22:00 11,1 C 54 % 1022,7 hPa 0,0 l/m 9,7 km/h W-NW 2,2 C 9,0 C 29,0 km/h
27.11.2011 23:00 11,1 C 58 % 1023,4 hPa 0,0 l/m 8,4 km/h N-NW 3,1 C 9,7 C 25,8 km/h
Min-Datum _ 26.11.11 27.11.11 27.11.11 - 21.11.11 - 26.11.11 26.11.11 23.11.11
_ Min-Zeit 04:15 22:15 18:30 - 10:15 - 03:45 03:45 09:15
Minimum _ -3,3 C 53 % 1021,6 hPa - 0,0 km/h - -5,7 C -3,2 C 0,0 km/h
Max-Datum _ 27.11.11 27.11.11 24.11.11 24.11.11 26.11.11 - 27.11.11 27.11.11 27.11.11
_ Max-Zeit 22:15 07:30 10:00 10:15 08:30 - 23:45 23:15 22:15
Maximum _ 11,3 C 92 % 1037,1 hPa 0,3 l/m 12,2 km/h
NW
- 3,6 C 10,1 C 33,8 km/h
SW
Durchschnitt _ -0,3 C 83 % 1029,5 hPa #1,0 l/m 0,8 km/h N-NW -2,9 C -0,4 C 4,6 km/h